This is the latest recevied weather packets stored in our database for station/object LEAS. If no packets are shown the sender has not sent any weather packets the latest 10 day(s).
| Time | Temp. | Humidity | Pressure | Rain* | Wind** | Luminosity | Snow |
|---|---|---|---|---|---|---|---|
| 1788446703 | 25° C | 69% | 1022 hPa | - | - | - | - |
| 1788444903 | 25° C | 69% | 1022 hPa | - | - | - | - |
| 1788444004 | 26.11° C | 65% | 1022 hPa | - | - | - | - |
| 1788441304 | 25° C | 69% | 1023 hPa | - | - | - | - |
| 1788440403 | 23.89° C | 73% | 1023 hPa | - | - | - | - |
| 1788439503 | 23.89° C | 73% | 1023 hPa | - | - | - | - |
| 1788438604 | 23.89° C | 73% | 1023 hPa | - | - | - | - |
| 1788437703 | 23.89° C | 73% | 1023 hPa | - | - | - | - |
| 1788435903 | 23.89° C | 73% | 1023 hPa | - | - | - | - |
| 1788435004 | 22.78° C | 78% | 1024 hPa | - | - | - | - |
| 1788432304 | 22.78° C | 78% | 1024 hPa | - | - | - | - |
| 1788429604 | 21.11° C | 82% | 1024 hPa | - | - | - | - |
| 1788428703 | 21.11° C | 82% | 1024 hPa | - | - | - | - |
| 1788427802 | 20° C | 88% | 1023 hPa | - | - | - | - |
| 1788424204 | 17.78° C | 93% | 1023 hPa | - | - | - | - |
| 1788421503 | 17.78° C | 100% | 1023 hPa | - | - | - | - |
| 1788413403 | 16.11° C | 100% | 1023 hPa | - | - | - | - |
| 1788412504 | 16.11° C | 100% | 1023 hPa | - | - | - | - |
| 1788410703 | 17.22° C | 93% | 1023 hPa | - | - | - | - |
| 1788408004 | 16.11° C | 100% | 1024 hPa | - | - | - | - |
| 1788407103 | 16.11° C | 100% | 1024 hPa | - | - | - | - |
| 1788406204 | 17.22° C | 100% | 1024 hPa | - | - | - | - |
| 1788404403 | 17.22° C | 100% | 1024 hPa | - | - | - | - |
| 1788402603 | 17.78° C | 93% | 1024 hPa | - | - | - | - |
| 1788399902 | 17.22° C | 100% | 1024 hPa | - | - | - | - |
* Rain since midnight (hover to see other rain measurements)
** Current wind speed in m/s (hover to see current wind gust speed)